Aviation Digital Data Service (ADDS)

Output produced by METARs form (2258 UTC 23 October 2019)
found at http://www.aviationweather.gov/metar/data/
 
METAR text: EKCH 232250Z AUTO 13009KT 5000 SCT098/// BKN120/// 12/11 Q1015 NOSIG
Conditions at: EKCH (COPENHAGEN/KASTR, DK) observed 2250 UTC 23 October 2019
Temperature: 12.0°C (54°F)
Dewpoint: 11.0°C (52°F) [RH = 94%]
Pressure (altimeter): 29.97 inches Hg (1015.0 mb)
Winds: from the SE (130 degrees) at 10 MPH (9 knots; 4.6 m/s)
Visibility: 3 miles ( 5 km)
Ceiling: 12000 feet AGL
Clouds: scattered clouds at 9800 feet AGL
broken clouds at 12000 feet AGL
Weather: no significant weather observed at this time

METAR text: EKCH 232220Z AUTO 13006KT 9000 FEW006/// BKN100/// BKN160/// 11/10 Q1016 NOSIG
Conditions at: EKCH (COPENHAGEN/KASTR, DK) observed 2220 UTC 23 October 2019
Temperature: 11.0°C (52°F)
Dewpoint: 10.0°C (50°F) [RH = 94%]
Pressure (altimeter): 30.00 inches Hg (1016.0 mb)
Winds: from the SE (130 degrees) at 7 MPH (6 knots; 3.1 m/s)
Visibility: 6 miles ( 9 km)
Ceiling: 10000 feet AGL
Clouds: few clouds at 600 feet AGL
broken clouds at 10000 feet AGL
broken clouds at 16000 feet AGL
Weather: no significant weather observed at this time

METAR text: EKCH 232150Z AUTO 14008KT 9999 SCT100/// 12/10 Q1016 NOSIG
Conditions at: EKCH (COPENHAGEN/KASTR, DK) observed 2150 UTC 23 October 2019
Temperature: 12.0°C (54°F)
Dewpoint: 10.0°C (50°F) [RH = 88%]
Pressure (altimeter): 30.00 inches Hg (1016.0 mb)
Winds: from the SE (140 degrees) at 9 MPH (8 knots; 4.1 m/s)
Visibility: 6 or more miles (10+ km)
Ceiling: at least 12,000 feet AGL
Clouds: scattered clouds at 10000 feet AGL
Weather: no significant weather observed at this time

METAR text: EKCH 232120Z AUTO 14008KT 9999 NCD 12/10 Q1016 TEMPO 4000 BR BKN006
Conditions at: EKCH (COPENHAGEN/KASTR, DK) observed 2120 UTC 23 October 2019
Temperature: 12.0°C (54°F)
Dewpoint: 10.0°C (50°F) [RH = 88%]
Pressure (altimeter): 30.00 inches Hg (1016.0 mb)
Winds: from the SE (140 degrees) at 9 MPH (8 knots; 4.1 m/s)
Visibility: 6 or more miles (10+ km)
Ceiling: at least 12,000 feet AGL
Clouds: sky clear below 12,000 feet AGL
Weather: no significant weather observed at this time

METAR text: EKCH 232050Z AUTO 15006KT 7000 NCD 11/10 Q1016 TEMPO 4000 BR BKN006
Conditions at: EKCH (COPENHAGEN/KASTR, DK) observed 2050 UTC 23 October 2019
Temperature: 11.0°C (52°F)
Dewpoint: 10.0°C (50°F) [RH = 94%]
Pressure (altimeter): 30.00 inches Hg (1016.0 mb)
Winds: from the SSE (150 degrees) at 7 MPH (6 knots; 3.1 m/s)
Visibility: 4 miles ( 7 km)
Ceiling: at least 12,000 feet AGL
Clouds: sky clear below 12,000 feet AGL
Weather: no significant weather observed at this time

METAR text: EKCH 232020Z AUTO 13007KT 7000 FEW002/// 11/10 Q1016 TEMPO 5000 NSW BKN006
Conditions at: EKCH (COPENHAGEN/KASTR, DK) observed 2020 UTC 23 October 2019
Temperature: 11.0°C (52°F)
Dewpoint: 10.0°C (50°F) [RH = 94%]
Pressure (altimeter): 30.00 inches Hg (1016.0 mb)
Winds: from the SE (130 degrees) at 8 MPH (7 knots; 3.6 m/s)
Visibility: 4 miles ( 7 km)
Ceiling: at least 12,000 feet AGL
Clouds: few clouds at 200 feet AGL
Weather: no significant weather observed at this time

METAR text: EKCH 231950Z AUTO 13007KT 4800 BR SCT002/// 11/10 Q1016 TEMPO 4000 BR BKN006
Conditions at: EKCH (COPENHAGEN/KASTR, DK) observed 1950 UTC 23 October 2019
Temperature: 11.0°C (52°F)
Dewpoint: 10.0°C (50°F) [RH = 94%]
Pressure (altimeter): 30.00 inches Hg (1016.0 mb)
Winds: from the SE (130 degrees) at 8 MPH (7 knots; 3.6 m/s)
Visibility: 2.98 miles (4.80 km)
Ceiling: at least 12,000 feet AGL
Clouds: scattered clouds at 200 feet AGL
Weather: BR  (mist)

METAR text: EKCH 231920Z AUTO 15007KT 4600 BR FEW078/// FEW130/// 11/11 Q1017 TEMPO 6000 NSW BKN006
Conditions at: EKCH (COPENHAGEN/KASTR, DK) observed 1920 UTC 23 October 2019
Temperature: 11.0°C (52°F)
Dewpoint: 11.0°C (52°F) [RH = 100%]
Pressure (altimeter): 30.03 inches Hg (1017.0 mb)
Winds: from the SSE (150 degrees) at 8 MPH (7 knots; 3.6 m/s)
Visibility: 2.86 miles (4.60 km)
Ceiling: at least 12,000 feet AGL
Clouds: few clouds at 7800 feet AGL
few clouds at 13000 feet AGL
Weather: BR  (mist)

METAR text: EKCH 231850Z AUTO 17006KT 3400 BR SCT006/// BKN078/// 12/11 Q1017 TEMPO 6000 NSW BKN006
Conditions at: EKCH (COPENHAGEN/KASTR, DK) observed 1850 UTC 23 October 2019
Temperature: 12.0°C (54°F)
Dewpoint: 11.0°C (52°F) [RH = 94%]
Pressure (altimeter): 30.03 inches Hg (1017.0 mb)
Winds: from the S (170 degrees) at 7 MPH (6 knots; 3.1 m/s)
Visibility: 2.11 miles (3.40 km)
Ceiling: 7800 feet AGL
Clouds: scattered clouds at 600 feet AGL
broken clouds at 7800 feet AGL
Weather: BR  (mist)

METAR text: EKCH 231820Z AUTO 16008KT 3800 BR SCT005/// 11/11 Q1017 TEMPO 4000 BR BKN006
Conditions at: EKCH (COPENHAGEN/KASTR, DK) observed 1820 UTC 23 October 2019
Temperature: 11.0°C (52°F)
Dewpoint: 11.0°C (52°F) [RH = 100%]
Pressure (altimeter): 30.03 inches Hg (1017.0 mb)
Winds: from the SSE (160 degrees) at 9 MPH (8 knots; 4.1 m/s)
Visibility: 2.36 miles (3.80 km)
Ceiling: at least 12,000 feet AGL
Clouds: scattered clouds at 500 feet AGL
Weather: BR  (mist)

METAR text: EKCH 231750Z AUTO 17005KT 5000 SCT088/// 11/10 Q1017 TEMPO BKN012
Conditions at: EKCH (COPENHAGEN/KASTR, DK) observed 1750 UTC 23 October 2019
Temperature: 11.0°C (52°F)
Dewpoint: 10.0°C (50°F) [RH = 94%]
Pressure (altimeter): 30.03 inches Hg (1017.0 mb)
Winds: from the S (170 degrees) at 6 MPH (5 knots; 2.6 m/s)
Visibility: 3 miles ( 5 km)
Ceiling: at least 12,000 feet AGL
Clouds: scattered clouds at 8800 feet AGL
Weather: no significant weather observed at this time

METAR text: EKCH 231720Z AUTO 18006KT 4800 BR FEW035/// SCT089/// 11/10 Q1018 TEMPO BKN012
Conditions at: EKCH (COPENHAGEN/KASTR, DK) observed 1720 UTC 23 October 2019
Temperature: 11.0°C (52°F)
Dewpoint: 10.0°C (50°F) [RH = 94%]
Pressure (altimeter): 30.06 inches Hg (1018.0 mb)
Winds: from the S (180 degrees) at 7 MPH (6 knots; 3.1 m/s)
Visibility: 2.98 miles (4.80 km)
Ceiling: at least 12,000 feet AGL
Clouds: few clouds at 3500 feet AGL
scattered clouds at 8900 feet AGL
Weather: BR  (mist)

METAR text: EKCH 231650Z AUTO 18005KT 5000 BKN036/// 12/11 Q1018 TEMPO BKN012
Conditions at: EKCH (COPENHAGEN/KASTR, DK) observed 1650 UTC 23 October 2019
Temperature: 12.0°C (54°F)
Dewpoint: 11.0°C (52°F) [RH = 94%]
Pressure (altimeter): 30.06 inches Hg (1018.0 mb)
Winds: from the S (180 degrees) at 6 MPH (5 knots; 2.6 m/s)
Visibility: 3 miles ( 5 km)
Ceiling: 3600 feet AGL
Clouds: broken clouds at 3600 feet AGL
Weather: no significant weather observed at this time

METAR text: EKCH 231620Z AUTO 18007KT 6000 FEW015/// BKN037/// 12/10 Q1018 TEMPO BKN012
Conditions at: EKCH (COPENHAGEN/KASTR, DK) observed 1620 UTC 23 October 2019
Temperature: 12.0°C (54°F)
Dewpoint: 10.0°C (50°F) [RH = 88%]
Pressure (altimeter): 30.06 inches Hg (1018.0 mb)
Winds: from the S (180 degrees) at 8 MPH (7 knots; 3.6 m/s)
Visibility: 4 miles ( 6 km)
Ceiling: 3700 feet AGL
Clouds: few clouds at 1500 feet AGL
broken clouds at 3700 feet AGL
Weather: no significant weather observed at this time

METAR text: EKCH 231550Z AUTO 17006KT 6000 BKN039/// 12/11 Q1018 TEMPO BKN012
Conditions at: EKCH (COPENHAGEN/KASTR, DK) observed 1550 UTC 23 October 2019
Temperature: 12.0°C (54°F)
Dewpoint: 11.0°C (52°F) [RH = 94%]
Pressure (altimeter): 30.06 inches Hg (1018.0 mb)
Winds: from the S (170 degrees) at 7 MPH (6 knots; 3.1 m/s)
Visibility: 4 miles ( 6 km)
Ceiling: 3900 feet AGL
Clouds: broken clouds at 3900 feet AGL
Weather: no significant weather observed at this time

METAR text: EKCH 231520Z AUTO 18007KT 7000 FEW008/// BKN038/// 12/11 Q1018 TEMPO BKN012
Conditions at: EKCH (COPENHAGEN/KASTR, DK) observed 1520 UTC 23 October 2019
Temperature: 12.0°C (54°F)
Dewpoint: 11.0°C (52°F) [RH = 94%]
Pressure (altimeter): 30.06 inches Hg (1018.0 mb)
Winds: from the S (180 degrees) at 8 MPH (7 knots; 3.6 m/s)
Visibility: 4 miles ( 7 km)
Ceiling: 3800 feet AGL
Clouds: few clouds at 800 feet AGL
broken clouds at 3800 feet AGL
Weather: no significant weather observed at this time

METAR text: EKCH 231450Z AUTO 17007KT 8000 FEW009/// BKN034/// 13/11 Q1018 TEMPO BKN012
Conditions at: EKCH (COPENHAGEN/KASTR, DK) observed 1450 UTC 23 October 2019
Temperature: 13.0°C (55°F)
Dewpoint: 11.0°C (52°F) [RH = 88%]
Pressure (altimeter): 30.06 inches Hg (1018.0 mb)
Winds: from the S (170 degrees) at 8 MPH (7 knots; 3.6 m/s)
Visibility: 5 miles ( 8 km)
Ceiling: 3400 feet AGL
Clouds: few clouds at 900 feet AGL
broken clouds at 3400 feet AGL
Weather: no significant weather observed at this time

METAR text: EKCH 231420Z 18007KT 6000 OVC036 13/11 Q1018 TEMPO BKN012
Conditions at: EKCH (COPENHAGEN/KASTR, DK) observed 1420 UTC 23 October 2019
Temperature: 13.0°C (55°F)
Dewpoint: 11.0°C (52°F) [RH = 88%]
Pressure (altimeter): 30.06 inches Hg (1018.0 mb)
Winds: from the S (180 degrees) at 8 MPH (7 knots; 3.6 m/s)
Visibility: 4 miles ( 6 km)
Ceiling: 3600 feet AGL
Clouds: overcast cloud deck at 3600 feet AGL
Weather: no significant weather observed at this time

METAR text: EKCH 231350Z 19006KT 6000 BKN009 BKN036 13/11 Q1019 TEMPO BKN015
Conditions at: EKCH (COPENHAGEN/KASTR, DK) observed 1350 UTC 23 October 2019
Temperature: 13.0°C (55°F)
Dewpoint: 11.0°C (52°F) [RH = 88%]
Pressure (altimeter): 30.09 inches Hg (1019.0 mb)
Winds: from the S (190 degrees) at 7 MPH (6 knots; 3.1 m/s)
Visibility: 4 miles ( 6 km)
Ceiling: 900 feet AGL
Clouds: broken clouds at 900 feet AGL
broken clouds at 3600 feet AGL
Weather: no significant weather observed at this time

METAR text: EKCH 231320Z 20007KT 8000 BKN009 BKN040 13/11 Q1019 TEMPO BKN015
Conditions at: EKCH (COPENHAGEN/KASTR, DK) observed 1320 UTC 23 October 2019
Temperature: 13.0°C (55°F)
Dewpoint: 11.0°C (52°F) [RH = 88%]
Pressure (altimeter): 30.09 inches Hg (1019.0 mb)
Winds: from the SSW (200 degrees) at 8 MPH (7 knots; 3.6 m/s)
Visibility: 5 miles ( 8 km)
Ceiling: 900 feet AGL
Clouds: broken clouds at 900 feet AGL
broken clouds at 4000 feet AGL
Weather: no significant weather observed at this time

METAR text: EKCH 231250Z AUTO 20007KT 9999 FEW010/// OVC040/// 13/11 Q1019 NOSIG
Conditions at: EKCH (COPENHAGEN/KASTR, DK) observed 1250 UTC 23 October 2019
Temperature: 13.0°C (55°F)
Dewpoint: 11.0°C (52°F) [RH = 88%]
Pressure (altimeter): 30.09 inches Hg (1019.0 mb)
Winds: from the SSW (200 degrees) at 8 MPH (7 knots; 3.6 m/s)
Visibility: 6 or more miles (10+ km)
Ceiling: 4000 feet AGL
Clouds: few clouds at 1000 feet AGL
overcast cloud deck at 4000 feet AGL
Weather: no significant weather observed at this time

METAR text: EKCH 231220Z AUTO 20005KT 9999 FEW011/// OVC039/// 13/10 Q1019 NOSIG
Conditions at: EKCH (COPENHAGEN/KASTR, DK) observed 1220 UTC 23 October 2019
Temperature: 13.0°C (55°F)
Dewpoint: 10.0°C (50°F) [RH = 82%]
Pressure (altimeter): 30.09 inches Hg (1019.0 mb)
Winds: from the SSW (200 degrees) at 6 MPH (5 knots; 2.6 m/s)
Visibility: 6 or more miles (10+ km)
Ceiling: 3900 feet AGL
Clouds: few clouds at 1100 feet AGL
overcast cloud deck at 3900 feet AGL
Weather: no significant weather observed at this time

METAR text: EKCH 231150Z AUTO 22007KT 9999 FEW013/// SCT022/// BKN046/// 13/11 Q1020 NOSIG
Conditions at: EKCH (COPENHAGEN/KASTR, DK) observed 1150 UTC 23 October 2019
Temperature: 13.0°C (55°F)
Dewpoint: 11.0°C (52°F) [RH = 88%]
Pressure (altimeter): 30.12 inches Hg (1020.0 mb)
Winds: from the SW (220 degrees) at 8 MPH (7 knots; 3.6 m/s)
Visibility: 6 or more miles (10+ km)
Ceiling: 4600 feet AGL
Clouds: few clouds at 1300 feet AGL
scattered clouds at 2200 feet AGL
broken clouds at 4600 feet AGL
Weather: no significant weather observed at this time

METAR text: EKCH 231120Z AUTO 22007KT 9999 OVC023/// 13/10 Q1020 NOSIG
Conditions at: EKCH (COPENHAGEN/KASTR, DK) observed 1120 UTC 23 October 2019
Temperature: 13.0°C (55°F)
Dewpoint: 10.0°C (50°F) [RH = 82%]
Pressure (altimeter): 30.12 inches Hg (1020.0 mb)
Winds: from the SW (220 degrees) at 8 MPH (7 knots; 3.6 m/s)
Visibility: 6 or more miles (10+ km)
Ceiling: 2300 feet AGL
Clouds: overcast cloud deck at 2300 feet AGL
Weather: no significant weather observed at this time

METAR text: EKCH 231050Z AUTO 21009KT 9999 FEW009/// OVC024/// 12/11 Q1020 NOSIG
Conditions at: EKCH (COPENHAGEN/KASTR, DK) observed 1050 UTC 23 October 2019
Temperature: 12.0°C (54°F)
Dewpoint: 11.0°C (52°F) [RH = 94%]
Pressure (altimeter): 30.12 inches Hg (1020.0 mb)
Winds: from the SSW (210 degrees) at 10 MPH (9 knots; 4.6 m/s)
Visibility: 6 or more miles (10+ km)
Ceiling: 2400 feet AGL
Clouds: few clouds at 900 feet AGL
overcast cloud deck at 2400 feet AGL
Weather: no significant weather observed at this time

METAR text: EKCH 231020Z AUTO 20009KT 9999 OVC024/// 12/11 Q1021 NOSIG
Conditions at: EKCH (COPENHAGEN/KASTR, DK) observed 1020 UTC 23 October 2019
Temperature: 12.0°C (54°F)
Dewpoint: 11.0°C (52°F) [RH = 94%]
Pressure (altimeter): 30.15 inches Hg (1021.0 mb)
Winds: from the SSW (200 degrees) at 10 MPH (9 knots; 4.6 m/s)
Visibility: 6 or more miles (10+ km)
Ceiling: 2400 feet AGL
Clouds: overcast cloud deck at 2400 feet AGL
Weather: no significant weather observed at this time

METAR text: EKCH 230950Z AUTO 21007KT 9999 OVC029/// 12/10 Q1021 NOSIG
Conditions at: EKCH (COPENHAGEN/KASTR, DK) observed 0950 UTC 23 October 2019
Temperature: 12.0°C (54°F)
Dewpoint: 10.0°C (50°F) [RH = 88%]
Pressure (altimeter): 30.15 inches Hg (1021.0 mb)
Winds: from the SSW (210 degrees) at 8 MPH (7 knots; 3.6 m/s)
Visibility: 6 or more miles (10+ km)
Ceiling: 2900 feet AGL
Clouds: overcast cloud deck at 2900 feet AGL
Weather: no significant weather observed at this time

METAR text: EKCH 230920Z AUTO 21007KT 9999 BKN031/// OVC049/// 12/10 Q1020 NOSIG
Conditions at: EKCH (COPENHAGEN/KASTR, DK) observed 0920 UTC 23 October 2019
Temperature: 12.0°C (54°F)
Dewpoint: 10.0°C (50°F) [RH = 88%]
Pressure (altimeter): 30.12 inches Hg (1020.0 mb)
Winds: from the SSW (210 degrees) at 8 MPH (7 knots; 3.6 m/s)
Visibility: 6 or more miles (10+ km)
Ceiling: 3100 feet AGL
Clouds: broken clouds at 3100 feet AGL
overcast cloud deck at 4900 feet AGL
Weather: no significant weather observed at this time

METAR text: EKCH 230850Z AUTO 20007KT 9999 OVC028/// 12/10 Q1021 NOSIG
Conditions at: EKCH (COPENHAGEN/KASTR, DK) observed 0850 UTC 23 October 2019
Temperature: 12.0°C (54°F)
Dewpoint: 10.0°C (50°F) [RH = 88%]
Pressure (altimeter): 30.15 inches Hg (1021.0 mb)
Winds: from the SSW (200 degrees) at 8 MPH (7 knots; 3.6 m/s)
Visibility: 6 or more miles (10+ km)
Ceiling: 2800 feet AGL
Clouds: overcast cloud deck at 2800 feet AGL
Weather: no significant weather observed at this time

METAR text: EKCH 230820Z AUTO 21006KT 9999 OVC029/// 12/09 Q1021 NOSIG
Conditions at: EKCH (COPENHAGEN/KASTR, DK) observed 0820 UTC 23 October 2019
Temperature: 12.0°C (54°F)
Dewpoint: 9.0°C (48°F) [RH = 82%]
Pressure (altimeter): 30.15 inches Hg (1021.0 mb)
Winds: from the SSW (210 degrees) at 7 MPH (6 knots; 3.1 m/s)
Visibility: 6 or more miles (10+ km)
Ceiling: 2900 feet AGL
Clouds: overcast cloud deck at 2900 feet AGL
Weather: no significant weather observed at this time

METAR text: EKCH 230750Z AUTO 22006KT 9999 OVC030/// 12/09 Q1021 NOSIG
Conditions at: EKCH (COPENHAGEN/KASTR, DK) observed 0750 UTC 23 October 2019
Temperature: 12.0°C (54°F)
Dewpoint: 9.0°C (48°F) [RH = 82%]
Pressure (altimeter): 30.15 inches Hg (1021.0 mb)
Winds: from the SW (220 degrees) at 7 MPH (6 knots; 3.1 m/s)
Visibility: 6 or more miles (10+ km)
Ceiling: 3000 feet AGL
Clouds: overcast cloud deck at 3000 feet AGL
Weather: no significant weather observed at this time

METAR text: EKCH 230720Z AUTO 22005KT 9999 OVC027/// 12/08 Q1021 NOSIG
Conditions at: EKCH (COPENHAGEN/KASTR, DK) observed 0720 UTC 23 October 2019
Temperature: 12.0°C (54°F)
Dewpoint: 8.0°C (46°F) [RH = 76%]
Pressure (altimeter): 30.15 inches Hg (1021.0 mb)
Winds: from the SW (220 degrees) at 6 MPH (5 knots; 2.6 m/s)
Visibility: 6 or more miles (10+ km)
Ceiling: 2700 feet AGL
Clouds: overcast cloud deck at 2700 feet AGL
Weather: no significant weather observed at this time

METAR text: EKCH 230650Z AUTO 23005KT 9999 OVC027/// 11/08 Q1021 NOSIG
Conditions at: EKCH (COPENHAGEN/KASTR, DK) observed 0650 UTC 23 October 2019
Temperature: 11.0°C (52°F)
Dewpoint: 8.0°C (46°F) [RH = 82%]
Pressure (altimeter): 30.15 inches Hg (1021.0 mb)
Winds: from the SW (230 degrees) at 6 MPH (5 knots; 2.6 m/s)
Visibility: 6 or more miles (10+ km)
Ceiling: 2700 feet AGL
Clouds: overcast cloud deck at 2700 feet AGL
Weather: no significant weather observed at this time

METAR text: EKCH 230620Z AUTO 23003KT 9999 OVC025/// 11/08 Q1021 NOSIG
Conditions at: EKCH (COPENHAGEN/KASTR, DK) observed 0620 UTC 23 October 2019
Temperature: 11.0°C (52°F)
Dewpoint: 8.0°C (46°F) [RH = 82%]
Pressure (altimeter): 30.15 inches Hg (1021.0 mb)
Winds: from the SW (230 degrees) at 3 MPH (3 knots; 1.5 m/s)
Visibility: 6 or more miles (10+ km)
Ceiling: 2500 feet AGL
Clouds: overcast cloud deck at 2500 feet AGL
Weather: no significant weather observed at this time

METAR text: EKCH 230550Z AUTO 21003KT 9999 OVC025/// 11/08 Q1021 NOSIG
Conditions at: EKCH (COPENHAGEN/KASTR, DK) observed 0550 UTC 23 October 2019
Temperature: 11.0°C (52°F)
Dewpoint: 8.0°C (46°F) [RH = 82%]
Pressure (altimeter): 30.15 inches Hg (1021.0 mb)
Winds: from the SSW (210 degrees) at 3 MPH (3 knots; 1.5 m/s)
Visibility: 6 or more miles (10+ km)
Ceiling: 2500 feet AGL
Clouds: overcast cloud deck at 2500 feet AGL
Weather: no significant weather observed at this time

METAR text: EKCH 230520Z AUTO 25004KT 9999 OVC026/// 11/07 Q1020 NOSIG
Conditions at: EKCH (COPENHAGEN/KASTR, DK) observed 0520 UTC 23 October 2019
Temperature: 11.0°C (52°F)
Dewpoint: 7.0°C (45°F) [RH = 76%]
Pressure (altimeter): 30.12 inches Hg (1020.0 mb)
Winds: from the WSW (250 degrees) at 5 MPH (4 knots; 2.1 m/s)
Visibility: 6 or more miles (10+ km)
Ceiling: 2600 feet AGL
Clouds: overcast cloud deck at 2600 feet AGL
Weather: no significant weather observed at this time

METAR text: EKCH 230450Z AUTO 27005KT 240V300 9999 OVC027/// 11/07 Q1020 NOSIG
Conditions at: EKCH (COPENHAGEN/KASTR, DK) observed 0450 UTC 23 October 2019
Temperature: 11.0°C (52°F)
Dewpoint: 7.0°C (45°F) [RH = 76%]
Pressure (altimeter): 30.12 inches Hg (1020.0 mb)
Winds: from the W (270 degrees) at 6 MPH (5 knots; 2.6 m/s)
Visibility: 6 or more miles (10+ km)
Ceiling: 2700 feet AGL
Clouds: overcast cloud deck at 2700 feet AGL
Weather: no significant weather observed at this time

METAR text: EKCH 230420Z AUTO 25007KT 9999 OVC027/// 11/07 Q1021 NOSIG
Conditions at: EKCH (COPENHAGEN/KASTR, DK) observed 0420 UTC 23 October 2019
Temperature: 11.0°C (52°F)
Dewpoint: 7.0°C (45°F) [RH = 76%]
Pressure (altimeter): 30.15 inches Hg (1021.0 mb)
Winds: from the WSW (250 degrees) at 8 MPH (7 knots; 3.6 m/s)
Visibility: 6 or more miles (10+ km)
Ceiling: 2700 feet AGL
Clouds: overcast cloud deck at 2700 feet AGL
Weather: no significant weather observed at this time

METAR text: EKCH 230350Z AUTO 24004KT 9999 BKN028/// 10/07 Q1020 NOSIG
Conditions at: EKCH (COPENHAGEN/KASTR, DK) observed 0350 UTC 23 October 2019
Temperature: 10.0°C (50°F)
Dewpoint: 7.0°C (45°F) [RH = 82%]
Pressure (altimeter): 30.12 inches Hg (1020.0 mb)
Winds: from the WSW (240 degrees) at 5 MPH (4 knots; 2.1 m/s)
Visibility: 6 or more miles (10+ km)
Ceiling: 2800 feet AGL
Clouds: broken clouds at 2800 feet AGL
Weather: no significant weather observed at this time

METAR text: EKCH 230320Z AUTO 26006KT 9999 BKN028/// 10/07 Q1021 NOSIG
Conditions at: EKCH (COPENHAGEN/KASTR, DK) observed 0320 UTC 23 October 2019
Temperature: 10.0°C (50°F)
Dewpoint: 7.0°C (45°F) [RH = 82%]
Pressure (altimeter): 30.15 inches Hg (1021.0 mb)
Winds: from the W (260 degrees) at 7 MPH (6 knots; 3.1 m/s)
Visibility: 6 or more miles (10+ km)
Ceiling: 2800 feet AGL
Clouds: broken clouds at 2800 feet AGL
Weather: no significant weather observed at this time

METAR text: EKCH 230250Z AUTO 26008KT 9999 OVC027/// 11/07 Q1021 NOSIG
Conditions at: EKCH (COPENHAGEN/KASTR, DK) observed 0250 UTC 23 October 2019
Temperature: 11.0°C (52°F)
Dewpoint: 7.0°C (45°F) [RH = 76%]
Pressure (altimeter): 30.15 inches Hg (1021.0 mb)
Winds: from the W (260 degrees) at 9 MPH (8 knots; 4.1 m/s)
Visibility: 6 or more miles (10+ km)
Ceiling: 2700 feet AGL
Clouds: overcast cloud deck at 2700 feet AGL
Weather: no significant weather observed at this time

METAR text: EKCH 230220Z AUTO 26010KT 9999 OVC026/// 11/07 Q1021 NOSIG
Conditions at: EKCH (COPENHAGEN/KASTR, DK) observed 0220 UTC 23 October 2019
Temperature: 11.0°C (52°F)
Dewpoint: 7.0°C (45°F) [RH = 76%]
Pressure (altimeter): 30.15 inches Hg (1021.0 mb)
Winds: from the W (260 degrees) at 12 MPH (10 knots; 5.1 m/s)
Visibility: 6 or more miles (10+ km)
Ceiling: 2600 feet AGL
Clouds: overcast cloud deck at 2600 feet AGL
Weather: no significant weather observed at this time

METAR text: EKCH 230150Z AUTO 26011KT 9999 BKN027/// 11/06 Q1021 NOSIG
Conditions at: EKCH (COPENHAGEN/KASTR, DK) observed 0150 UTC 23 October 2019
Temperature: 11.0°C (52°F)
Dewpoint: 6.0°C (43°F) [RH = 71%]
Pressure (altimeter): 30.15 inches Hg (1021.0 mb)
Winds: from the W (260 degrees) at 13 MPH (11 knots; 5.7 m/s)
Visibility: 6 or more miles (10+ km)
Ceiling: 2700 feet AGL
Clouds: broken clouds at 2700 feet AGL
Weather: no significant weather observed at this time

METAR text: EKCH 230120Z AUTO 26012KT 9999 BKN028/// 11/07 Q1021 NOSIG
Conditions at: EKCH (COPENHAGEN/KASTR, DK) observed 0120 UTC 23 October 2019
Temperature: 11.0°C (52°F)
Dewpoint: 7.0°C (45°F) [RH = 76%]
Pressure (altimeter): 30.15 inches Hg (1021.0 mb)
Winds: from the W (260 degrees) at 14 MPH (12 knots; 6.2 m/s)
Visibility: 6 or more miles (10+ km)
Ceiling: 2800 feet AGL
Clouds: broken clouds at 2800 feet AGL
Weather: no significant weather observed at this time

METAR text: EKCH 230050Z AUTO 25010KT 9999 BKN029/// 11/07 Q1021 NOSIG
Conditions at: EKCH (COPENHAGEN/KASTR, DK) observed 0050 UTC 23 October 2019
Temperature: 11.0°C (52°F)
Dewpoint: 7.0°C (45°F) [RH = 76%]
Pressure (altimeter): 30.15 inches Hg (1021.0 mb)
Winds: from the WSW (250 degrees) at 12 MPH (10 knots; 5.1 m/s)
Visibility: 6 or more miles (10+ km)
Ceiling: 2900 feet AGL
Clouds: broken clouds at 2900 feet AGL
Weather: no significant weather observed at this time

METAR text: EKCH 230020Z AUTO 26010KT 9999 BKN029/// 11/07 Q1021 NOSIG
Conditions at: EKCH (COPENHAGEN/KASTR, DK) observed 0020 UTC 23 October 2019
Temperature: 11.0°C (52°F)
Dewpoint: 7.0°C (45°F) [RH = 76%]
Pressure (altimeter): 30.15 inches Hg (1021.0 mb)
Winds: from the W (260 degrees) at 12 MPH (10 knots; 5.1 m/s)
Visibility: 6 or more miles (10+ km)
Ceiling: 2900 feet AGL
Clouds: broken clouds at 2900 feet AGL
Weather: no significant weather observed at this time

METAR text: EKCH 222350Z AUTO 25011KT 9999 BKN025/// 11/07 Q1021 NOSIG
Conditions at: EKCH (COPENHAGEN/KASTR, DK) observed 2350 UTC 22 October 2019
Temperature: 11.0°C (52°F)
Dewpoint: 7.0°C (45°F) [RH = 76%]
Pressure (altimeter): 30.15 inches Hg (1021.0 mb)
Winds: from the WSW (250 degrees) at 13 MPH (11 knots; 5.7 m/s)
Visibility: 6 or more miles (10+ km)
Ceiling: 2500 feet AGL
Clouds: broken clouds at 2500 feet AGL
Weather: no significant weather observed at this time

METAR text: EKCH 222320Z AUTO 25008KT 9999 BKN029/// 11/09 Q1021 NOSIG
Conditions at: EKCH (COPENHAGEN/KASTR, DK) observed 2320 UTC 22 October 2019
Temperature: 11.0°C (52°F)
Dewpoint: 9.0°C (48°F) [RH = 87%]
Pressure (altimeter): 30.15 inches Hg (1021.0 mb)
Winds: from the WSW (250 degrees) at 9 MPH (8 knots; 4.1 m/s)
Visibility: 6 or more miles (10+ km)
Ceiling: 2900 feet AGL
Clouds: broken clouds at 2900 feet AGL
Weather: no significant weather observed at this time

METAR text: EKCH 222250Z AUTO 25010KT 9999 BKN029/// 11/08 Q1021 NOSIG
Conditions at: EKCH (COPENHAGEN/KASTR, DK) observed 2250 UTC 22 October 2019
Temperature: 11.0°C (52°F)
Dewpoint: 8.0°C (46°F) [RH = 82%]
Pressure (altimeter): 30.15 inches Hg (1021.0 mb)
Winds: from the WSW (250 degrees) at 12 MPH (10 knots; 5.1 m/s)
Visibility: 6 or more miles (10+ km)
Ceiling: 2900 feet AGL
Clouds: broken clouds at 2900 feet AGL
Weather: no significant weather observed at this time

METAR text: EKCH 222220Z AUTO 25009KT 9999 BKN031/// 11/09 Q1021 NOSIG
Conditions at: EKCH (COPENHAGEN/KASTR, DK) observed 2220 UTC 22 October 2019
Temperature: 11.0°C (52°F)
Dewpoint: 9.0°C (48°F) [RH = 87%]
Pressure (altimeter): 30.15 inches Hg (1021.0 mb)
Winds: from the WSW (250 degrees) at 10 MPH (9 knots; 4.6 m/s)
Visibility: 6 or more miles (10+ km)
Ceiling: 3100 feet AGL
Clouds: broken clouds at 3100 feet AGL
Weather: no significant weather observed at this time

METAR text: EKCH 222150Z AUTO 25011KT 9999 BKN023/// 11/09 Q1021 NOSIG
Conditions at: EKCH (COPENHAGEN/KASTR, DK) observed 2150 UTC 22 October 2019
Temperature: 11.0°C (52°F)
Dewpoint: 9.0°C (48°F) [RH = 87%]
Pressure (altimeter): 30.15 inches Hg (1021.0 mb)
Winds: from the WSW (250 degrees) at 13 MPH (11 knots; 5.7 m/s)
Visibility: 6 or more miles (10+ km)
Ceiling: 2300 feet AGL
Clouds: broken clouds at 2300 feet AGL
Weather: no significant weather observed at this time

METAR text: EKCH 222120Z AUTO 23010KT 9999 BKN031/// 11/10 Q1021 NOSIG
Conditions at: EKCH (COPENHAGEN/KASTR, DK) observed 2120 UTC 22 October 2019
Temperature: 11.0°C (52°F)
Dewpoint: 10.0°C (50°F) [RH = 94%]
Pressure (altimeter): 30.15 inches Hg (1021.0 mb)
Winds: from the SW (230 degrees) at 12 MPH (10 knots; 5.1 m/s)
Visibility: 6 or more miles (10+ km)
Ceiling: 3100 feet AGL
Clouds: broken clouds at 3100 feet AGL
Weather: no significant weather observed at this time

METAR text: EKCH 222050Z AUTO 24010KT 9999 FEW021/// FEW035/// 11/10 Q1021 NOSIG
Conditions at: EKCH (COPENHAGEN/KASTR, DK) observed 2050 UTC 22 October 2019
Temperature: 11.0°C (52°F)
Dewpoint: 10.0°C (50°F) [RH = 94%]
Pressure (altimeter): 30.15 inches Hg (1021.0 mb)
Winds: from the WSW (240 degrees) at 12 MPH (10 knots; 5.1 m/s)
Visibility: 6 or more miles (10+ km)
Ceiling: at least 12,000 feet AGL
Clouds: few clouds at 2100 feet AGL
few clouds at 3500 feet AGL
Weather: no significant weather observed at this time

METAR text: EKCH 222020Z AUTO 24011KT 9999 NCD 11/10 Q1021 NOSIG
Conditions at: EKCH (COPENHAGEN/KASTR, DK) observed 2020 UTC 22 October 2019
Temperature: 11.0°C (52°F)
Dewpoint: 10.0°C (50°F) [RH = 94%]
Pressure (altimeter): 30.15 inches Hg (1021.0 mb)
Winds: from the WSW (240 degrees) at 13 MPH (11 knots; 5.7 m/s)
Visibility: 6 or more miles (10+ km)
Ceiling: at least 12,000 feet AGL
Clouds: sky clear below 12,000 feet AGL
Weather: no significant weather observed at this time

METAR text: EKCH 221950Z AUTO 24009KT 9000 BKN007/// BKN019/// 11/10 Q1021 NOSIG
Conditions at: EKCH (COPENHAGEN/KASTR, DK) observed 1950 UTC 22 October 2019
Temperature: 11.0°C (52°F)
Dewpoint: 10.0°C (50°F) [RH = 94%]
Pressure (altimeter): 30.15 inches Hg (1021.0 mb)
Winds: from the WSW (240 degrees) at 10 MPH (9 knots; 4.6 m/s)
Visibility: 6 miles ( 9 km)
Ceiling: 700 feet AGL
Clouds: broken clouds at 700 feet AGL
broken clouds at 1900 feet AGL
Weather: no significant weather observed at this time

METAR text: EKCH 221920Z AUTO 23009KT 6000 SCT008/// BKN040/// 12/11 Q1021 NOSIG
Conditions at: EKCH (COPENHAGEN/KASTR, DK) observed 1920 UTC 22 October 2019
Temperature: 12.0°C (54°F)
Dewpoint: 11.0°C (52°F) [RH = 94%]
Pressure (altimeter): 30.15 inches Hg (1021.0 mb)
Winds: from the SW (230 degrees) at 10 MPH (9 knots; 4.6 m/s)
Visibility: 4 miles ( 6 km)
Ceiling: 4000 feet AGL
Clouds: scattered clouds at 800 feet AGL
broken clouds at 4000 feet AGL
Weather: no significant weather observed at this time

METAR text: EKCH 221850Z AUTO 23010KT 7000 NCD 11/10 Q1021 NOSIG
Conditions at: EKCH (COPENHAGEN/KASTR, DK) observed 1850 UTC 22 October 2019
Temperature: 11.0°C (52°F)
Dewpoint: 10.0°C (50°F) [RH = 94%]
Pressure (altimeter): 30.15 inches Hg (1021.0 mb)
Winds: from the SW (230 degrees) at 12 MPH (10 knots; 5.1 m/s)
Visibility: 4 miles ( 7 km)
Ceiling: at least 12,000 feet AGL
Clouds: sky clear below 12,000 feet AGL
Weather: no significant weather observed at this time

METAR text: EKCH 221820Z AUTO 23010KT 9000 FEW009/// FEW046/// 12/10 Q1020 NOSIG
Conditions at: EKCH (COPENHAGEN/KASTR, DK) observed 1820 UTC 22 October 2019
Temperature: 12.0°C (54°F)
Dewpoint: 10.0°C (50°F) [RH = 88%]
Pressure (altimeter): 30.12 inches Hg (1020.0 mb)
Winds: from the SW (230 degrees) at 12 MPH (10 knots; 5.1 m/s)
Visibility: 6 miles ( 9 km)
Ceiling: at least 12,000 feet AGL
Clouds: few clouds at 900 feet AGL
few clouds at 4600 feet AGL
Weather: no significant weather observed at this time

METAR text: EKCH 221750Z AUTO 24009KT 9000 FEW038/// BKN053/// 12/11 Q1020 NOSIG
Conditions at: EKCH (COPENHAGEN/KASTR, DK) observed 1750 UTC 22 October 2019
Temperature: 12.0°C (54°F)
Dewpoint: 11.0°C (52°F) [RH = 94%]
Pressure (altimeter): 30.12 inches Hg (1020.0 mb)
Winds: from the WSW (240 degrees) at 10 MPH (9 knots; 4.6 m/s)
Visibility: 6 miles ( 9 km)
Ceiling: 5300 feet AGL
Clouds: few clouds at 3800 feet AGL
broken clouds at 5300 feet AGL
Weather: no significant weather observed at this time

METAR text: EKCH 221720Z 24011KT 9000 SCT010 BKN053 12/11 Q1020 TEMPO BKN012
Conditions at: EKCH (COPENHAGEN/KASTR, DK) observed 1720 UTC 22 October 2019
Temperature: 12.0°C (54°F)
Dewpoint: 11.0°C (52°F) [RH = 94%]
Pressure (altimeter): 30.12 inches Hg (1020.0 mb)
Winds: from the WSW (240 degrees) at 13 MPH (11 knots; 5.7 m/s)
Visibility: 6 miles ( 9 km)
Ceiling: 5300 feet AGL
Clouds: scattered clouds at 1000 feet AGL
broken clouds at 5300 feet AGL
Weather: no significant weather observed at this time

METAR text: EKCH 221650Z 23011KT 8000 SCT012 BKN058 12/11 Q1020 NOSIG
Conditions at: EKCH (COPENHAGEN/KASTR, DK) observed 1650 UTC 22 October 2019
Temperature: 12.0°C (54°F)
Dewpoint: 11.0°C (52°F) [RH = 94%]
Pressure (altimeter): 30.12 inches Hg (1020.0 mb)
Winds: from the SW (230 degrees) at 13 MPH (11 knots; 5.7 m/s)
Visibility: 5 miles ( 8 km)
Ceiling: 5800 feet AGL
Clouds: scattered clouds at 1200 feet AGL
broken clouds at 5800 feet AGL
Weather: no significant weather observed at this time

METAR text: EKCH 221620Z 24010KT 9000 FEW011 BKN060 12/11 Q1020 NOSIG
Conditions at: EKCH (COPENHAGEN/KASTR, DK) observed 1620 UTC 22 October 2019
Temperature: 12.0°C (54°F)
Dewpoint: 11.0°C (52°F) [RH = 94%]
Pressure (altimeter): 30.12 inches Hg (1020.0 mb)
Winds: from the WSW (240 degrees) at 12 MPH (10 knots; 5.1 m/s)
Visibility: 6 miles ( 9 km)
Ceiling: 6000 feet AGL
Clouds: few clouds at 1100 feet AGL
broken clouds at 6000 feet AGL
Weather: no significant weather observed at this time

METAR text: EKCH 221550Z 24011KT 9999 FEW009 BKN060 12/11 Q1019 TEMPO BKN012
Conditions at: EKCH (COPENHAGEN/KASTR, DK) observed 1550 UTC 22 October 2019
Temperature: 12.0°C (54°F)
Dewpoint: 11.0°C (52°F) [RH = 94%]
Pressure (altimeter): 30.09 inches Hg (1019.0 mb)
Winds: from the WSW (240 degrees) at 13 MPH (11 knots; 5.7 m/s)
Visibility: 6 or more miles (10+ km)
Ceiling: 6000 feet AGL
Clouds: few clouds at 900 feet AGL
broken clouds at 6000 feet AGL
Weather: no significant weather observed at this time

METAR text: EKCH 221520Z 23012KT 8000 SCT009 BKN010 13/11 Q1020 TEMPO BKN012
Conditions at: EKCH (COPENHAGEN/KASTR, DK) observed 1520 UTC 22 October 2019
Temperature: 13.0°C (55°F)
Dewpoint: 11.0°C (52°F) [RH = 88%]
Pressure (altimeter): 30.12 inches Hg (1020.0 mb)
Winds: from the SW (230 degrees) at 14 MPH (12 knots; 6.2 m/s)
Visibility: 5 miles ( 8 km)
Ceiling: 1000 feet AGL
Clouds: scattered clouds at 900 feet AGL
broken clouds at 1000 feet AGL
Weather: no significant weather observed at this time

METAR text: EKCH 221450Z 24012KT 8000 FEW010 OVC012 13/11 Q1020 TEMPO BKN015
Conditions at: EKCH (COPENHAGEN/KASTR, DK) observed 1450 UTC 22 October 2019
Temperature: 13.0°C (55°F)
Dewpoint: 11.0°C (52°F) [RH = 88%]
Pressure (altimeter): 30.12 inches Hg (1020.0 mb)
Winds: from the WSW (240 degrees) at 14 MPH (12 knots; 6.2 m/s)
Visibility: 5 miles ( 8 km)
Ceiling: 1200 feet AGL
Clouds: few clouds at 1000 feet AGL
overcast cloud deck at 1200 feet AGL
Weather: no significant weather observed at this time

METAR text: EKCH 221420Z 24012KT 9999 OVC012 13/11 Q1020 TEMPO BKN015
Conditions at: EKCH (COPENHAGEN/KASTR, DK) observed 1420 UTC 22 October 2019
Temperature: 13.0°C (55°F)
Dewpoint: 11.0°C (52°F) [RH = 88%]
Pressure (altimeter): 30.12 inches Hg (1020.0 mb)
Winds: from the WSW (240 degrees) at 14 MPH (12 knots; 6.2 m/s)
Visibility: 6 or more miles (10+ km)
Ceiling: 1200 feet AGL
Clouds: overcast cloud deck at 1200 feet AGL
Weather: no significant weather observed at this time

METAR text: EKCH 221350Z 24013KT 9999 OVC012 13/11 Q1020 TEMPO BKN015
Conditions at: EKCH (COPENHAGEN/KASTR, DK) observed 1350 UTC 22 October 2019
Temperature: 13.0°C (55°F)
Dewpoint: 11.0°C (52°F) [RH = 88%]
Pressure (altimeter): 30.12 inches Hg (1020.0 mb)
Winds: from the WSW (240 degrees) at 15 MPH (13 knots; 6.7 m/s)
Visibility: 6 or more miles (10+ km)
Ceiling: 1200 feet AGL
Clouds: overcast cloud deck at 1200 feet AGL
Weather: no significant weather observed at this time

METAR text: EKCH 221320Z 23015KT 9999 OVC013 13/11 Q1020 TEMPO BKN015
Conditions at: EKCH (COPENHAGEN/KASTR, DK) observed 1320 UTC 22 October 2019
Temperature: 13.0°C (55°F)
Dewpoint: 11.0°C (52°F) [RH = 88%]
Pressure (altimeter): 30.12 inches Hg (1020.0 mb)
Winds: from the SW (230 degrees) at 17 MPH (15 knots; 7.7 m/s)
Visibility: 6 or more miles (10+ km)
Ceiling: 1300 feet AGL
Clouds: overcast cloud deck at 1300 feet AGL
Weather: no significant weather observed at this time

METAR text: EKCH 221250Z AUTO 23015KT 9999 OVC015/// 13/10 Q1020 NOSIG
Conditions at: EKCH (COPENHAGEN/KASTR, DK) observed 1250 UTC 22 October 2019
Temperature: 13.0°C (55°F)
Dewpoint: 10.0°C (50°F) [RH = 82%]
Pressure (altimeter): 30.12 inches Hg (1020.0 mb)
Winds: from the SW (230 degrees) at 17 MPH (15 knots; 7.7 m/s)
Visibility: 6 or more miles (10+ km)
Ceiling: 1500 feet AGL
Clouds: overcast cloud deck at 1500 feet AGL
Weather: no significant weather observed at this time

METAR text: EKCH 221220Z AUTO 24016KT 9999 BKN019/// BKN035/// 14/11 Q1019 NOSIG
Conditions at: EKCH (COPENHAGEN/KASTR, DK) observed 1220 UTC 22 October 2019
Temperature: 14.0°C (57°F)
Dewpoint: 11.0°C (52°F) [RH = 82%]
Pressure (altimeter): 30.09 inches Hg (1019.0 mb)
Winds: from the WSW (240 degrees) at 18 MPH (16 knots; 8.2 m/s)
Visibility: 6 or more miles (10+ km)
Ceiling: 1900 feet AGL
Clouds: broken clouds at 1900 feet AGL
broken clouds at 3500 feet AGL
Weather: no significant weather observed at this time

METAR text: EKCH 221150Z AUTO 23017KT 9999 BKN018/// BKN034/// 14/11 Q1020 NOSIG
Conditions at: EKCH (COPENHAGEN/KASTR, DK) observed 1150 UTC 22 October 2019
Temperature: 14.0°C (57°F)
Dewpoint: 11.0°C (52°F) [RH = 82%]
Pressure (altimeter): 30.12 inches Hg (1020.0 mb)
Winds: from the SW (230 degrees) at 20 MPH (17 knots; 8.7 m/s)
Visibility: 6 or more miles (10+ km)
Ceiling: 1800 feet AGL
Clouds: broken clouds at 1800 feet AGL
broken clouds at 3400 feet AGL
Weather: no significant weather observed at this time

METAR text: EKCH 221120Z AUTO 23016KT 9999 BKN015/// BKN029/// 13/10 Q1020 NOSIG
Conditions at: EKCH (COPENHAGEN/KASTR, DK) observed 1120 UTC 22 October 2019
Temperature: 13.0°C (55°F)
Dewpoint: 10.0°C (50°F) [RH = 82%]
Pressure (altimeter): 30.12 inches Hg (1020.0 mb)
Winds: from the SW (230 degrees) at 18 MPH (16 knots; 8.2 m/s)
Visibility: 6 or more miles (10+ km)
Ceiling: 1500 feet AGL
Clouds: broken clouds at 1500 feet AGL
broken clouds at 2900 feet AGL
Weather: no significant weather observed at this time

Forecast for: AMD
Text: TAF AMD EKCH 231803Z 2318/2418 16010KT 8000 BKN025
Forecast period: 1800 UTC 23 October 2019 to 0700 UTC 24 October 2019
Forecast type: FROM: standard forecast or significant change
Winds: from the SSE (160 degrees) at 12 MPH (10 knots; 5.1 m/s)
Visibility: 5 miles (8 km)
Ceiling: 2500 feet AGL
Clouds: broken clouds at 2500 feet AGL
Weather: no significant weather forecast for this period
Text: TEMPO 2318/2323 4000 BR BKN006
Forecast period: 1800 to 2300 UTC 23 October 2019
Forecast type: TEMPORARY: The following changes expected for less than half the time period
Visibility: 2.49 miles (4.01 km)
Ceiling: 600 feet AGL
Clouds: broken clouds at 600 feet AGL
Weather: BR  (mist)
Text: BECMG 2407/2409 BKN004
Forecast period: 0700 to 1800 UTC 24 October 2019
Forecast type: BECOMING: Conditions expected to become as follows by 0900 UTC 24 October 2019
Winds: from the SSE (160 degrees) at 12 MPH (10 knots; 5.1 m/s)
Visibility: 5 miles (8 km)
Ceiling: 400 feet AGL
Clouds: broken clouds at 400 feet AGL
Weather: no significant weather forecast for this period
Text: TEMPO 2409/2418 14015G25KT 4000 BR BKN006
Forecast period: 0900 to 1800 UTC 24 October 2019
Forecast type: TEMPORARY: The following changes expected for less than half the time period
Winds: from the SE (140 degrees) at 17 MPH (15 knots; 7.7 m/s)
gusting to 29 MPH (25 knots; 12.9 m/s)
Visibility: 2.49 miles (4.01 km)
Ceiling: 600 feet AGL
Clouds: broken clouds at 600 feet AGL
Weather: BR  (mist)